Time;durP1;ratioP1;P1;durP2;ratioP2;P2;SDS_P1;SDS_P2;PMS_P1;PMS_P2;Temp;Humidity;BMP_temperature;BMP_pressure;BME280_temperature;BME280_humidity;BME280_pressure;Samples;Min_cycle;Max_cycle;Signal;HPM_P1;HPM_P2
2023/11/26 00:00:33;;;;;;;3.43;3.13;;;2.00;81.00;;;;;;5030222;28;20225;-64
2023/11/26 00:02:59;;;;;;;2.77;2.67;;;2.10;80.20;;;;;;5012094;28;20828;-64
2023/11/26 00:05:26;;;;;;;2.73;2.60;;;2.10;79.90;;;;;;5015710;28;20673;-64
2023/11/26 00:07:53;;;;;;;2.50;2.40;;;2.10;80.10;;;;;;5031186;28;20244;-64
2023/11/26 00:10:19;;;;;;;3.20;2.90;;;2.10;78.80;;;;;;5023477;28;20209;-64
2023/11/26 00:12:46;;;;;;;3.00;2.80;;;2.00;79.70;;;;;;5022471;28;20264;-64
2023/11/26 00:15:13;;;;;;;3.43;3.10;;;2.10;78.90;;;;;;5029910;28;20233;-64
2023/11/26 00:17:39;;;;;;;3.07;2.87;;;2.10;78.80;;;;;;5031858;28;20695;-65
2023/11/26 00:20:06;;;;;;;2.93;2.73;;;2.00;78.70;;;;;;5030729;28;20708;-65
2023/11/26 00:22:33;;;;;;;2.90;2.73;;;2.10;79.50;;;;;;5029273;28;20686;-64
2023/11/26 00:24:59;;;;;;;3.40;3.20;;;2.00;79.20;;;;;;5030334;28;20225;-65
2023/11/26 00:27:26;;;;;;;3.23;3.03;;;2.00;79.30;;;;;;5028865;28;20592;-64
2023/11/26 00:29:53;;;;;;;2.93;2.77;;;2.10;78.80;;;;;;5026569;28;20235;-64
2023/11/26 00:32:19;;;;;;;3.43;3.20;;;2.10;78.60;;;;;;5032348;28;20205;-64
2023/11/26 00:34:46;;;;;;;3.70;3.40;;;2.00;78.70;;;;;;5032279;28;20221;-64
2023/11/26 00:37:12;;;;;;;3.37;3.17;;;2.00;78.90;;;;;;5035396;28;20255;-64
2023/11/26 00:39:39;;;;;;;3.30;3.10;;;2.00;78.60;;;;;;5031269;28;20213;-64
2023/11/26 00:42:05;;;;;;;3.27;3.07;;;2.10;79.50;;;;;;5030537;28;20209;-65
2023/11/26 00:44:32;;;;;;;3.60;3.40;;;1.90;78.60;;;;;;5024885;28;20213;-65
2023/11/26 00:46:59;;;;;;;3.60;3.40;;;1.90;78.60;;;;;;5026517;28;20202;-65
2023/11/26 00:49:26;;;;;;;4.00;3.70;;;1.90;78.60;;;;;;5031121;28;20256;-65
2023/11/26 00:51:53;;;;;;;3.90;3.60;;;1.90;78.60;;;;;;5026606;28;20213;-64
2023/11/26 00:54:19;;;;;;;3.93;3.73;;;1.80;78.50;;;;;;5032521;28;20284;-65
2023/11/26 00:56:46;;;;;;;4.33;3.93;;;1.90;78.60;;;;;;5034737;28;20301;-65
2023/11/26 00:59:12;;;;;;;4.23;3.93;;;2.00;78.50;;;;;;5028277;28;20301;-64
2023/11/26 01:01:39;;;;;;;4.00;3.70;;;2.00;77.80;;;;;;5026697;28;20230;-64
2023/11/26 01:04:06;;;;;;;4.20;3.90;;;2.00;78.70;;;;;;5032314;28;20303;-64
2023/11/26 01:06:34;;;;;;;4.20;3.93;;;2.00;77.50;;;;;;5025580;28;20233;-64
2023/11/26 01:09:01;;;;;;;4.53;3.87;;;2.00;77.70;;;;;;5026080;28;20240;-64
2023/11/26 01:11:27;;;;;;;3.57;3.37;;;2.00;78.40;;;;;;5027719;28;20272;-64
2023/11/26 01:13:54;;;;;;;3.70;3.40;;;2.00;77.80;;;;;;5032185;28;20778;-65
2023/11/26 01:16:21;;;;;;;4.53;4.13;;;2.00;77.20;;;;;;5026406;28;20225;-65
2023/11/26 01:18:47;;;;;;;3.50;3.30;;;2.00;76.80;;;;;;5027807;28;20230;-64
2023/11/26 01:21:14;;;;;;;4.00;3.70;;;1.90;77.20;;;;;;5026933;28;20578;-64
2023/11/26 01:23:40;;;;;;;4.07;3.67;;;1.80;77.10;;;;;;5028401;28;20214;-64
2023/11/26 01:26:07;;;;;;;3.87;3.50;;;1.80;77.30;;;;;;5011225;28;20317;-64
2023/11/26 01:28:34;;;;;;;3.93;3.63;;;1.70;78.40;;;;;;5028543;28;20328;-64
2023/11/26 01:31:00;;;;;;;4.13;3.60;;;1.90;77.40;;;;;;5020935;28;20233;-64
2023/11/26 01:33:27;;;;;;;3.70;3.40;;;1.80;76.80;;;;;;5034206;28;20641;-64
2023/11/26 01:35:54;;;;;;;3.40;3.20;;;1.80;77.50;;;;;;5028421;28;20259;-64
2023/11/26 01:38:20;;;;;;;3.43;3.23;;;1.80;76.50;;;;;;5028504;28;20234;-64
2023/11/26 01:40:47;;;;;;;3.77;3.50;;;1.90;76.00;;;;;;5023309;28;20230;-64
2023/11/26 01:43:14;;;;;;;3.67;3.37;;;1.90;76.20;;;;;;5033593;28;20703;-64
2023/11/26 01:45:40;;;;;;;3.40;3.20;;;1.80;74.30;;;;;;5023092;28;20234;-65
2023/11/26 01:48:07;;;;;;;2.90;2.70;;;1.80;73.20;;;;;;5032482;28;20209;-65
2023/11/26 01:50:33;;;;;;;3.73;3.43;;;1.70;74.10;;;;;;5031826;28;20294;-65
2023/11/26 01:53:00;;;;;;;3.43;3.23;;;1.80;73.40;;;;;;5026306;28;20263;-64
2023/11/26 01:55:27;;;;;;;3.47;3.27;;;1.90;72.90;;;;;;5030546;28;20230;-64
2023/11/26 01:57:53;;;;;;;3.10;2.70;;;1.90;72.30;;;;;;5027251;28;20271;-64
2023/11/26 02:00:20;;;;;;;3.20;2.90;;;1.80;71.20;;;;;;5027152;28;20261;-64
2023/11/26 02:02:47;;;;;;;4.10;2.80;;;1.80;70.50;;;;;;5031648;28;20216;-64
2023/11/26 02:05:13;;;;;;;3.37;2.33;;;1.80;70.90;;;;;;5031937;28;20237;-64
2023/11/26 02:07:40;;;;;;;4.40;2.60;;;1.80;69.80;;;;;;5025227;28;20213;-64
2023/11/26 02:10:06;;;;;;;3.27;2.50;;;1.80;70.00;;;;;;5030265;28;20206;-64
2023/11/26 02:12:33;;;;;;;2.50;2.30;;;1.80;70.20;;;;;;5018563;28;20238;-64
2023/11/26 02:14:59;;;;;;;3.13;2.47;;;1.90;69.80;;;;;;5016293;28;20221;-64
2023/11/26 02:17:26;;;;;;;2.97;2.77;;;1.80;69.70;;;;;;5027250;28;20245;-64
2023/11/26 02:19:53;;;;;;;2.77;2.57;;;1.80;69.20;;;;;;5024883;28;20208;-64
2023/11/26 02:22:19;;;;;;;2.93;2.63;;;1.90;69.20;;;;;;5033591;28;20232;-64
2023/11/26 02:24:46;;;;;;;2.70;2.50;;;1.90;69.80;;;;;;5029009;28;20591;-64
2023/11/26 02:27:12;;;;;;;2.50;2.30;;;1.80;69.00;;;;;;5021115;28;20210;-64
2023/11/26 02:29:40;;;;;;;2.57;2.37;;;1.70;70.00;;;;;;5017445;28;20234;-64
2023/11/26 02:32:07;;;;;;;3.10;2.90;;;1.70;70.50;;;;;;5025001;28;20593;-64
2023/11/26 02:34:34;;;;;;;3.00;2.80;;;1.70;70.50;;;;;;5021722;28;20221;-64
2023/11/26 02:37:00;;;;;;;2.87;2.60;;;1.60;70.80;;;;;;5020401;28;20209;-65
2023/11/26 02:39:28;;;;;;;3.17;2.97;;;1.50;72.00;;;;;;5021396;28;20273;-65
2023/11/26 02:41:55;;;;;;;2.70;2.50;;;1.50;72.80;;;;;;5026179;28;20233;-65
2023/11/26 02:44:21;;;;;;;3.10;2.90;;;1.40;72.30;;;;;;5025493;28;20248;-65
2023/11/26 02:46:48;;;;;;;3.60;3.30;;;1.40;72.40;;;;;;5020750;28;20214;-65
2023/11/26 02:49:14;;;;;;;3.20;3.00;;;1.30;73.20;;;;;;5025219;28;20766;-65
2023/11/26 02:51:42;;;;;;;3.10;2.80;;;1.30;72.30;;;;;;5030624;28;20210;-64
2023/11/26 02:54:09;;;;;;;3.60;3.33;;;1.20;72.30;;;;;;5005900;28;20213;-64
2023/11/26 02:56:36;;;;;;;3.23;3.00;;;1.30;71.50;;;;;;5027042;28;20791;-64
2023/11/26 02:59:02;;;;;;;5.17;3.33;;;1.40;72.20;;;;;;5025090;28;20214;-64
2023/11/26 03:01:30;;;;;;;6.20;3.27;;;1.40;70.80;;;;;;5024704;28;20252;-64
2023/11/26 03:03:57;;;;;;;3.03;2.83;;;1.30;70.90;;;;;;5025206;28;20240;-64
2023/11/26 03:06:26;;;;;;;3.67;3.23;;;1.30;70.60;;;;;;5025291;28;20230;-64
2023/11/26 03:08:59;;;;;;;3.83;3.37;;;1.30;71.70;;;;;;5029742;28;20660;-65
2023/11/26 03:14:10;;;;;;;3.50;3.20;;;1.20;72.70;;;;;;5022205;28;20192;-64
2023/11/26 03:16:38;;;;;;;3.57;3.23;;;1.20;72.90;;;;;;5021655;28;20252;-64
2023/11/26 03:19:05;;;;;;;3.50;3.30;;;1.20;73.60;;;;;;5023232;28;20698;-64
2023/11/26 03:21:33;;;;;;;4.90;3.20;;;1.20;73.40;;;;;;5023597;28;20227;-65
2023/11/26 03:24:00;;;;;;;4.00;3.70;;;1.20;73.40;;;;;;5032386;28;20220;-64
2023/11/26 03:26:26;;;;;;;4.07;3.77;;;1.20;72.80;;;;;;5025931;28;20229;-64
2023/11/26 03:28:54;;;;;;;3.97;3.67;;;1.30;72.50;;;;;;5031215;28;20741;-64
2023/11/26 03:31:22;;;;;;;3.83;3.53;;;1.30;73.10;;;;;;5022255;28;20196;-64
2023/11/26 03:33:48;;;;;;;3.53;3.33;;;1.30;73.00;;;;;;5032037;28;20304;-64
2023/11/26 03:36:15;;;;;;;4.27;3.97;;;1.30;72.70;;;;;;5031934;28;20240;-64
2023/11/26 03:38:42;;;;;;;4.13;3.83;;;1.40;72.60;;;;;;5024789;28;20339;-64
2023/11/26 03:41:08;;;;;;;4.00;3.40;;;1.30;72.60;;;;;;5025336;28;20262;-65
2023/11/26 03:43:35;;;;;;;3.40;3.20;;;1.40;72.50;;;;;;5020033;28;20392;-64
2023/11/26 03:46:01;;;;;;;4.40;3.73;;;1.40;72.70;;;;;;5022463;28;20740;-65
2023/11/26 03:48:28;;;;;;;5.40;3.40;;;1.40;71.60;;;;;;5031746;28;20209;-65
2023/11/26 03:50:55;;;;;;;4.20;3.90;;;1.50;71.20;;;;;;5026176;28;20591;-65
2023/11/26 03:53:21;;;;;;;4.27;3.87;;;1.50;70.70;;;;;;5031947;28;20217;-65
2023/11/26 03:55:49;;;;;;;3.90;3.60;;;1.50;70.80;;;;;;5025249;28;20283;-64
2023/11/26 03:58:16;;;;;;;3.73;3.40;;;1.60;70.50;;;;;;5031854;28;20236;-65
2023/11/26 04:00:42;;;;;;;4.13;3.80;;;1.60;69.60;;;;;;5025419;28;20205;-65
2023/11/26 04:03:09;;;;;;;3.50;3.20;;;1.50;70.00;;;;;;5031925;28;20216;-65
2023/11/26 04:05:35;;;;;;;4.20;3.90;;;1.50;70.50;;;;;;5031336;28;20720;-65
2023/11/26 04:08:02;;;;;;;4.03;3.30;;;1.50;70.30;;;;;;5019277;28;20367;-64
2023/11/26 04:10:29;;;;;;;3.93;3.63;;;1.50;69.40;;;;;;5026833;28;20694;-65
2023/11/26 04:12:55;;;;;;;4.57;3.60;;;1.60;69.60;;;;;;5031485;28;20254;-65
2023/11/26 04:15:22;;;;;;;3.20;3.00;;;1.60;69.30;;;;;;5029382;28;20252;-65
2023/11/26 04:17:49;;;;;;;3.40;3.10;;;1.60;69.40;;;;;;5020111;28;20213;-65
2023/11/26 04:20:15;;;;;;;3.57;3.33;;;1.60;69.10;;;;;;5025704;28;20217;-65
2023/11/26 04:22:42;;;;;;;3.70;2.83;;;1.60;68.40;;;;;;5019964;28;20230;-64
2023/11/26 04:25:11;;;;;;;4.27;3.87;;;1.60;68.60;;;;;;5021043;28;20656;-65
2023/11/26 04:27:37;;;;;;;3.30;3.00;;;1.70;69.00;;;;;;5024122;28;20634;-65
2023/11/26 04:30:04;;;;;;;3.57;3.00;;;1.60;68.50;;;;;;5026324;28;20300;-65
2023/11/26 04:32:31;;;;;;;3.40;3.10;;;1.50;68.90;;;;;;5027915;28;20206;-65
2023/11/26 04:34:58;;;;;;;3.10;2.80;;;1.60;67.60;;;;;;5027890;28;20237;-65
2023/11/26 04:37:24;;;;;;;4.20;3.20;;;1.60;68.10;;;;;;5025216;28;20271;-65
2023/11/26 04:39:51;;;;;;;3.93;3.50;;;1.60;67.70;;;;;;5030989;28;20227;-65
2023/11/26 04:42:17;;;;;;;3.60;3.30;;;1.50;67.80;;;;;;5031266;28;20283;-65
2023/11/26 04:44:44;;;;;;;3.17;2.97;;;1.50;67.70;;;;;;5022168;28;20236;-65
2023/11/26 04:47:10;;;;;;;2.67;2.50;;;1.40;67.60;;;;;;5032284;28;20237;-64
2023/11/26 04:49:37;;;;;;;2.90;2.70;;;1.40;66.00;;;;;;5027062;28;20224;-64
2023/11/26 04:52:03;;;;;;;2.83;2.53;;;1.40;67.50;;;;;;5031614;28;20255;-65
2023/11/26 04:54:30;;;;;;;3.33;3.13;;;1.30;67.80;;;;;;5029871;28;20218;-65
2023/11/26 04:56:56;;;;;;;3.40;3.10;;;1.30;68.20;;;;;;5023970;28;20248;-65
2023/11/26 04:59:23;;;;;;;2.87;2.67;;;1.30;68.70;;;;;;5029532;28;20209;-65
2023/11/26 05:01:55;;;;;;;3.13;2.73;;;1.40;67.40;;;;;;5021876;28;20260;-64
2023/11/26 05:04:22;;;;;;;2.93;2.73;;;1.40;67.50;;;;;;5025304;28;20220;-65
2023/11/26 05:06:48;;;;;;;3.07;2.77;;;1.30;68.20;;;;;;5015916;28;20287;-65
2023/11/26 05:09:16;;;;;;;4.87;2.80;;;1.30;68.30;;;;;;5034503;28;20212;-65
2023/11/26 05:11:42;;;;;;;3.30;3.10;;;1.40;68.20;;;;;;5026313;28;20211;-64
2023/11/26 05:14:09;;;;;;;3.13;2.80;;;1.40;67.60;;;;;;5034579;28;20212;-64
2023/11/26 05:16:36;;;;;;;4.13;2.97;;;1.40;67.60;;;;;;5028742;28;20233;-64
2023/11/26 05:19:02;;;;;;;2.90;2.70;;;1.30;67.80;;;;;;5029550;28;20228;-64
2023/11/26 05:21:29;;;;;;;4.17;2.90;;;1.40;67.50;;;;;;5025226;28;20221;-64
2023/11/26 05:23:55;;;;;;;3.33;3.10;;;1.40;68.00;;;;;;5034411;28;20221;-65
2023/11/26 05:26:22;;;;;;;3.87;2.47;;;1.40;67.80;;;;;;5033995;28;20228;-64
2023/11/26 05:28:48;;;;;;;3.53;3.00;;;1.40;67.20;;;;;;5021874;28;20245;-64
2023/11/26 05:31:15;;;;;;;3.60;2.90;;;1.30;67.90;;;;;;5030382;28;20236;-64
2023/11/26 05:33:41;;;;;;;4.27;2.70;;;1.20;67.80;;;;;;5032616;28;20239;-64
2023/11/26 05:36:08;;;;;;;3.23;2.93;;;1.30;68.10;;;;;;5030292;28;20607;-65
2023/11/26 05:38:35;;;;;;;3.30;3.00;;;1.20;67.90;;;;;;5021869;28;20210;-64
2023/11/26 05:41:01;;;;;;;2.93;2.73;;;1.10;68.30;;;;;;5033319;28;20290;-64
2023/11/26 05:43:29;;;;;;;3.90;3.60;;;1.00;69.10;;;;;;5034050;28;20224;-64
2023/11/26 05:45:56;;;;;;;3.47;3.17;;;1.00;69.00;;;;;;5016728;28;20220;-64
2023/11/26 05:48:22;;;;;;;3.47;3.10;;;1.00;68.70;;;;;;5027344;28;20237;-64
2023/11/26 05:50:49;;;;;;;3.60;3.30;;;1.00;69.00;;;;;;5027574;28;20216;-64
2023/11/26 05:53:16;;;;;;;3.70;3.50;;;1.00;68.70;;;;;;5022924;28;20296;-64
2023/11/26 05:55:42;;;;;;;3.73;3.43;;;1.10;67.90;;;;;;5030143;28;20259;-64
2023/11/26 05:58:09;;;;;;;4.43;3.57;;;1.10;67.70;;;;;;5033663;28;20220;-64
2023/11/26 06:00:35;;;;;;;6.37;3.10;;;1.00;68.20;;;;;;5023380;28;20282;-64
2023/11/26 06:03:02;;;;;;;4.07;3.60;;;1.00;68.40;;;;;;5027570;28;20256;-64
2023/11/26 06:05:29;;;;;;;3.80;3.47;;;1.10;68.60;;;;;;5029071;28;20407;-64
2023/11/26 06:07:56;;;;;;;3.63;3.33;;;1.20;67.70;;;;;;5033012;28;20215;-64
2023/11/26 06:10:22;;;;;;;4.03;3.50;;;1.10;68.30;;;;;;5024570;28;20579;-64
2023/11/26 06:12:49;;;;;;;3.87;3.50;;;1.10;68.10;;;;;;5032150;28;20634;-64
2023/11/26 06:15:15;;;;;;;5.30;3.43;;;1.10;67.60;;;;;;5012653;28;20656;-64
2023/11/26 06:17:42;;;;;;;3.83;3.23;;;1.10;68.50;;;;;;5026956;28;20259;-64
2023/11/26 06:20:09;;;;;;;3.77;3.47;;;1.10;67.70;;;;;;5029782;28;20204;-64
2023/11/26 06:22:36;;;;;;;3.80;3.30;;;1.10;67.60;;;;;;5031845;28;20231;-64
2023/11/26 06:25:03;;;;;;;3.40;3.03;;;1.20;67.90;;;;;;5031582;28;20221;-65
2023/11/26 06:27:30;;;;;;;3.87;3.57;;;1.10;66.90;;;;;;5028635;28;20531;-64
2023/11/26 06:29:56;;;;;;;3.40;3.10;;;1.10;68.00;;;;;;5028257;28;20204;-64
2023/11/26 06:32:23;;;;;;;3.77;3.47;;;1.20;67.70;;;;;;5025372;28;20590;-64
2023/11/26 06:34:50;;;;;;;4.03;3.70;;;1.30;67.30;;;;;;5022902;28;20232;-65
2023/11/26 06:37:16;;;;;;;3.70;3.40;;;1.30;66.70;;;;;;5025117;28;20207;-64
2023/11/26 06:39:43;;;;;;;4.07;3.70;;;1.20;66.70;;;;;;5029637;28;20707;-64
2023/11/26 06:42:10;;;;;;;3.80;3.50;;;1.20;67.30;;;;;;5027951;28;20220;-64
2023/11/26 06:44:36;;;;;;;4.67;3.47;;;1.20;67.00;;;;;;5022526;28;20674;-64
2023/11/26 06:47:03;;;;;;;4.57;3.40;;;1.20;66.50;;;;;;5020434;28;20236;-64
2023/11/26 06:49:29;;;;;;;4.00;3.60;;;1.20;65.90;;;;;;5031209;28;20219;-64
2023/11/26 06:51:56;;;;;;;3.60;3.30;;;1.20;66.70;;;;;;5032874;28;20247;-64
2023/11/26 06:54:23;;;;;;;3.87;3.57;;;1.30;66.20;;;;;;5013028;28;20223;-64
2023/11/26 06:56:50;;;;;;;3.97;3.63;;;1.30;65.60;;;;;;5023403;28;20211;-64
2023/11/26 06:59:16;;;;;;;3.90;3.50;;;1.30;65.90;;;;;;5026731;28;20204;-65
2023/11/26 07:01:43;;;;;;;4.90;3.67;;;1.30;66.30;;;;;;5021529;28;20223;-64
2023/11/26 07:04:10;;;;;;;4.17;3.87;;;1.20;66.60;;;;;;5016934;28;20263;-64
2023/11/26 07:06:37;;;;;;;4.20;3.90;;;1.20;66.40;;;;;;5030851;28;20223;-64
2023/11/26 07:09:08;;;;;;;5.20;3.53;;;1.30;66.30;;;;;;5031914;28;20236;-64
2023/11/26 07:11:35;;;;;;;3.43;3.20;;;1.30;66.20;;;;;;5025844;28;20205;-64
2023/11/26 07:14:03;;;;;;;4.77;3.63;;;1.40;66.00;;;;;;5029570;28;20628;-65
2023/11/26 07:16:29;;;;;;;4.33;3.63;;;1.40;65.50;;;;;;5029845;28;20235;-65
2023/11/26 07:18:56;;;;;;;3.70;3.40;;;1.50;65.00;;;;;;5025431;28;20217;-64
2023/11/26 07:21:22;;;;;;;4.63;4.23;;;1.50;64.70;;;;;;5021221;28;20269;-64
2023/11/26 07:23:50;;;;;;;4.30;3.90;;;1.40;64.90;;;;;;5029661;28;20216;-65
2023/11/26 07:26:21;;;;;;;4.37;3.57;;;1.40;65.10;;;;;;5023680;28;20248;-64
2023/11/26 07:28:50;;;;;;;3.73;3.43;;;1.40;65.40;;;;;;5026222;28;20201;-64
2023/11/26 07:31:17;;;;;;;4.57;3.23;;;1.40;64.90;;;;;;5021904;28;20213;-64
2023/11/26 07:33:45;;;;;;;5.60;3.80;;;1.40;65.60;;;;;;5021760;28;20291;-64
2023/11/26 07:36:11;;;;;;;4.57;3.60;;;1.50;64.60;;;;;;5019003;28;20229;-65
2023/11/26 07:38:38;;;;;;;4.90;3.70;;;1.50;65.60;;;;;;5022128;28;20233;-65
2023/11/26 07:41:04;;;;;;;4.43;4.07;;;1.60;65.10;;;;;;5021505;28;20201;-65
2023/11/26 07:43:31;;;;;;;4.13;3.83;;;1.60;65.60;;;;;;5013893;28;20337;-64
2023/11/26 07:45:58;;;;;;;4.00;3.53;;;1.70;64.20;;;;;;5027008;28;20228;-64
2023/11/26 07:48:25;;;;;;;4.43;3.60;;;1.80;64.10;;;;;;5024751;28;20226;-64
2023/11/26 07:50:51;;;;;;;3.93;3.63;;;1.80;63.10;;;;;;5015227;28;22213;-66
2023/11/26 07:53:18;;;;;;;4.90;3.97;;;1.80;62.90;;;;;;5019202;28;20750;-66
2023/11/26 07:55:45;;;;;;;3.70;3.40;;;1.80;62.80;;;;;;5015953;28;20258;-66
2023/11/26 07:58:12;;;;;;;4.90;3.77;;;1.90;63.30;;;;;;5019501;28;20199;-65
2023/11/26 08:00:38;;;;;;;4.30;3.90;;;1.80;63.20;;;;;;5019606;28;20219;-65
2023/11/26 08:03:07;;;;;;;4.17;3.77;;;2.00;62.80;;;;;;5029300;28;20716;-66
2023/11/26 08:05:36;;;;;;;4.33;4.00;;;1.90;62.30;;;;;;5015287;28;20257;-65
2023/11/26 08:08:03;;;;;;;4.00;3.70;;;2.10;62.30;;;;;;5025750;28;20357;-66
2023/11/26 08:10:31;;;;;;;4.23;3.80;;;2.40;61.30;;;;;;5018919;28;20206;-66
2023/11/26 08:12:58;;;;;;;4.17;3.70;;;2.70;60.60;;;;;;5025680;28;20614;-66
2023/11/26 08:15:27;;;;;;;4.83;4.33;;;2.90;59.20;;;;;;5005285;28;20764;-65
2023/11/26 08:17:55;;;;;;;4.17;3.77;;;2.90;59.50;;;;;;5014805;28;20198;-65
2023/11/26 08:20:22;;;;;;;3.80;3.40;;;2.70;61.60;;;;;;5009786;28;20293;-65
2023/11/26 08:22:51;;;;;;;5.63;3.90;;;2.70;60.80;;;;;;5023600;28;20352;-67
2023/11/26 08:25:23;;;;;;;3.70;3.40;;;2.70;61.30;;;;;;5012249;28;20241;-68
2023/11/26 08:27:51;;;;;;;3.90;3.60;;;2.60;60.40;;;;;;5018740;28;20211;-67
2023/11/26 08:32:58;;;;;;;4.20;3.47;;;2.90;59.20;;;;;;5027435;28;20210;-67
2023/11/26 08:35:25;;;;;;;5.23;3.40;;;2.90;59.40;;;;;;5024668;28;20318;-66
2023/11/26 08:37:51;;;;;;;4.50;3.60;;;2.60;59.40;;;;;;5014498;28;20246;-67
2023/11/26 08:40:18;;;;;;;3.80;3.60;;;2.60;59.80;;;;;;5020550;28;20215;-67
2023/11/26 08:42:47;;;;;;;4.50;3.33;;;3.00;59.80;;;;;;5020936;28;20230;-67
2023/11/26 08:45:13;;;;;;;4.97;3.70;;;3.00;59.00;;;;;;5030220;28;20310;-66
2023/11/26 08:47:42;;;;;;;4.60;3.60;;;3.00;59.00;;;;;;5024803;28;20234;-66
2023/11/26 08:50:09;;;;;;;3.80;3.50;;;3.10;59.10;;;;;;5033260;28;20211;-66
2023/11/26 08:52:36;;;;;;;5.50;4.23;;;3.80;57.40;;;;;;5027309;28;20217;-67
2023/11/26 08:55:04;;;;;;;4.87;3.70;;;4.20;55.50;;;;;;5032777;28;20741;-67
2023/11/26 08:57:30;;;;;;;4.73;3.33;;;4.60;55.60;;;;;;5024367;28;20272;-67
2023/11/26 08:59:57;;;;;;;3.13;2.90;;;4.90;54.60;;;;;;5030859;28;20224;-67
2023/11/26 09:02:23;;;;;;;5.27;4.70;;;5.60;51.90;;;;;;5028890;28;20323;-67
2023/11/26 09:04:50;;;;;;;3.53;3.07;;;4.90;53.20;;;;;;5018170;28;20353;-65
2023/11/26 09:07:17;;;;;;;234.33;53.20;;;4.40;55.30;;;;;;5027480;28;20244;-66
2023/11/26 09:09:43;;;;;;;12.47;5.03;;;4.30;55.80;;;;;;5025568;28;20206;-63
2023/11/26 09:12:10;;;;;;;3.70;3.37;;;4.00;55.80;;;;;;5013699;28;20209;-66
2023/11/26 09:14:36;;;;;;;4.57;3.90;;;3.70;57.30;;;;;;5026540;28;20297;-66
2023/11/26 09:17:03;;;;;;;3.13;2.93;;;3.60;58.20;;;;;;5028927;28;20250;-66
2023/11/26 09:19:30;;;;;;;3.60;3.30;;;3.40;58.60;;;;;;5029657;28;20206;-65
2023/11/26 09:22:01;;;;;;;5.20;3.03;;;3.50;57.80;;;;;;5013470;28;20240;-66
2023/11/26 09:24:28;;;;;;;3.90;3.20;;;3.40;58.20;;;;;;5032252;28;20210;-66
2023/11/26 09:26:55;;;;;;;3.20;2.80;;;3.50;57.80;;;;;;5025635;28;20207;-67
2023/11/26 09:29:22;;;;;;;3.77;3.43;;;3.30;57.60;;;;;;5021919;28;20204;-67
2023/11/26 09:31:49;;;;;;;5.33;3.13;;;3.20;58.30;;;;;;5032078;28;20216;-66
2023/11/26 09:34:15;;;;;;;3.47;3.17;;;3.30;58.60;;;;;;5029756;28;20200;-66
2023/11/26 09:36:42;;;;;;;3.77;3.47;;;3.10;59.20;;;;;;5014933;28;20288;-66
2023/11/26 09:39:09;;;;;;;4.30;3.90;;;3.00;59.70;;;;;;5028314;28;20207;-66
2023/11/26 09:41:35;;;;;;;3.47;3.17;;;3.00;59.10;;;;;;5025191;28;20261;-66
2023/11/26 09:44:02;;;;;;;3.50;3.00;;;3.30;58.60;;;;;;5029749;28;20320;-66
2023/11/26 09:46:28;;;;;;;4.20;3.60;;;3.10;58.90;;;;;;5024759;28;20238;-66
2023/11/26 09:48:55;;;;;;;4.70;3.30;;;3.10;58.80;;;;;;5020721;28;20340;-66
2023/11/26 09:51:21;;;;;;;3.37;3.10;;;3.00;59.10;;;;;;5026149;28;20246;-65
2023/11/26 09:53:48;;;;;;;3.90;3.60;;;2.80;59.70;;;;;;5025552;28;20251;-68
2023/11/26 09:56:14;;;;;;;3.83;3.43;;;2.70;60.00;;;;;;5028706;28;20257;-65
2023/11/26 09:58:41;;;;;;;5.70;3.70;;;2.70;60.20;;;;;;5022021;28;20681;-66
2023/11/26 10:01:07;;;;;;;4.93;3.83;;;2.70;60.50;;;;;;5021777;28;20226;-65
2023/11/26 10:03:34;;;;;;;3.67;3.33;;;2.60;61.00;;;;;;5015716;28;20282;-65
2023/11/26 10:06:00;;;;;;;4.80;3.43;;;2.70;60.50;;;;;;5023763;28;20307;-64
2023/11/26 10:08:27;;;;;;;4.30;3.33;;;2.80;61.00;;;;;;5023733;28;20214;-67
2023/11/26 10:10:54;;;;;;;3.63;3.33;;;2.90;60.20;;;;;;5014180;28;20211;-67
2023/11/26 10:13:20;;;;;;;4.23;3.40;;;3.10;60.20;;;;;;5019308;28;20286;-68
2023/11/26 10:15:48;;;;;;;3.50;3.20;;;3.00;59.90;;;;;;5027202;28;20700;-67
2023/11/26 10:18:16;;;;;;;4.93;3.70;;;3.00;60.20;;;;;;5025801;28;20212;-67
2023/11/26 10:20:45;;;;;;;4.50;3.70;;;2.90;60.50;;;;;;5026711;28;20210;-67
2023/11/26 10:23:13;;;;;;;3.93;3.33;;;2.90;61.10;;;;;;5030661;28;20249;-67
2023/11/26 10:25:39;;;;;;;3.97;3.20;;;3.10;60.70;;;;;;5026268;28;20226;-68
2023/11/26 10:28:06;;;;;;;3.83;3.40;;;2.80;60.70;;;;;;5032703;28;20249;-68
2023/11/26 10:30:33;;;;;;;6.13;3.73;;;2.90;61.70;;;;;;5030521;28;20650;-68
2023/11/26 10:32:59;;;;;;;4.03;3.63;;;3.00;61.80;;;;;;5032910;28;20211;-67
2023/11/26 10:35:26;;;;;;;4.03;3.33;;;2.90;61.40;;;;;;5031413;28;20226;-67
2023/11/26 10:37:53;;;;;;;3.57;3.27;;;2.90;61.20;;;;;;5029968;28;20206;-67
2023/11/26 10:40:20;;;;;;;4.80;3.20;;;2.90;60.80;;;;;;5027454;28;20292;-68
2023/11/26 10:42:46;;;;;;;4.07;3.70;;;2.90;61.40;;;;;;5021060;28;20273;-67
2023/11/26 10:45:13;;;;;;;3.13;2.87;;;2.90;61.70;;;;;;5027632;28;20580;-67
2023/11/26 10:47:39;;;;;;;4.10;2.90;;;2.80;60.80;;;;;;5029929;28;20261;-68
2023/11/26 10:50:06;;;;;;;3.50;3.13;;;2.80;61.40;;;;;;5031561;28;20641;-71
2023/11/26 10:52:33;;;;;;;4.60;3.30;;;2.80;61.20;;;;;;5032153;28;20618;-67
2023/11/26 10:54:59;;;;;;;5.07;3.80;;;2.80;61.40;;;;;;5031593;28;20724;-67
2023/11/26 10:57:26;;;;;;;4.13;3.23;;;2.90;61.70;;;;;;5023102;28;20239;-67
2023/11/26 10:59:52;;;;;;;3.37;2.80;;;2.80;61.50;;;;;;5017345;28;20203;-68
2023/11/26 11:02:19;;;;;;;3.30;3.00;;;2.80;61.60;;;;;;5000578;28;20357;-71
2023/11/26 11:04:46;;;;;;;5.03;3.33;;;2.80;61.60;;;;;;5016552;28;20296;-68
2023/11/26 11:07:13;;;;;;;3.43;3.00;;;2.90;61.70;;;;;;5015119;28;20218;-68
2023/11/26 11:09:40;;;;;;;3.47;3.17;;;2.90;61.70;;;;;;5022934;28;20214;-68
2023/11/26 11:12:06;;;;;;;3.83;3.33;;;3.00;61.80;;;;;;5022811;28;20445;-68
2023/11/26 11:14:33;;;;;;;3.77;3.40;;;2.90;61.70;;;;;;5009376;28;20203;-68
2023/11/26 11:17:00;;;;;;;5.40;3.67;;;2.90;62.20;;;;;;5016003;28;20223;-66
2023/11/26 11:19:26;;;;;;;4.17;3.70;;;3.00;62.50;;;;;;5024320;28;20685;-66
2023/11/26 11:21:53;;;;;;;4.63;3.40;;;2.90;62.60;;;;;;5026126;28;20268;-67
2023/11/26 11:24:19;;;;;;;3.87;3.40;;;3.00;62.80;;;;;;5023919;28;20739;-68
2023/11/26 11:26:46;;;;;;;4.30;3.90;;;3.10;63.00;;;;;;5024163;28;20266;-67
2023/11/26 11:29:13;;;;;;;3.57;3.27;;;3.30;62.50;;;;;;5029520;28;20293;-67
2023/11/26 11:31:40;;;;;;;4.70;3.70;;;3.20;62.00;;;;;;5028585;28;20207;-67
2023/11/26 11:34:05;;;;;;;4.13;3.53;;;3.10;61.90;;;;;;5013363;28;20230;-67
2023/11/26 11:36:32;;;;;;;3.63;3.33;;;3.10;61.90;;;;;;5027843;28;20331;-67
2023/11/26 11:38:58;;;;;;;4.10;3.80;;;3.10;61.90;;;;;;5014129;28;20206;-67
2023/11/26 11:41:25;;;;;;;3.70;3.37;;;3.00;61.80;;;;;;5020217;28;20238;-66
2023/11/26 11:43:51;;;;;;;3.80;3.37;;;3.10;62.50;;;;;;5004890;28;20223;-67
2023/11/26 11:46:17;;;;;;;4.70;3.67;;;3.10;62.50;;;;;;5023018;28;20375;-66
2023/11/26 11:48:44;;;;;;;4.40;3.43;;;3.20;62.80;;;;;;5028763;28;20673;-66
2023/11/26 11:51:10;;;;;;;4.23;3.57;;;3.20;63.30;;;;;;5007999;28;20540;-67
2023/11/26 11:53:37;;;;;;;5.83;3.87;;;3.20;63.10;;;;;;5019142;28;20218;-66
2023/11/26 11:56:04;;;;;;;3.40;3.03;;;3.30;62.60;;;;;;5020568;28;20226;-67
2023/11/26 11:58:31;;;;;;;3.80;3.47;;;3.30;62.10;;;;;;5019044;28;20214;-66
2023/11/26 12:00:58;;;;;;;3.57;3.30;;;3.40;62.20;;;;;;5009307;28;20285;-67
2023/11/26 12:03:25;;;;;;;3.70;3.40;;;3.50;61.30;;;;;;5025039;28;20602;-66
2023/11/26 12:05:51;;;;;;;3.77;3.47;;;3.20;61.60;;;;;;5016464;28;20229;-68
2023/11/26 12:08:18;;;;;;;4.10;3.40;;;3.30;60.80;;;;;;5018299;28;20305;-67
2023/11/26 12:10:44;;;;;;;3.13;2.80;;;3.20;61.00;;;;;;5006950;28;20214;-67
2023/11/26 12:13:11;;;;;;;3.43;3.07;;;3.40;60.90;;;;;;5027280;28;20206;-68
2023/11/26 12:15:39;;;;;;;4.20;3.23;;;3.50;60.80;;;;;;5028442;28;20284;-66
2023/11/26 12:18:06;;;;;;;3.53;3.23;;;3.50;59.90;;;;;;5020414;28;20200;-66
2023/11/26 12:20:33;;;;;;;3.77;3.40;;;3.80;59.80;;;;;;5015604;28;20218;-67
2023/11/26 12:22:59;;;;;;;4.50;3.13;;;3.90;58.80;;;;;;5029906;28;20233;-67
2023/11/26 12:25:26;;;;;;;4.33;3.00;;;4.00;58.20;;;;;;5024548;28;20228;-66
2023/11/26 12:27:52;;;;;;;5.10;2.87;;;3.90;58.10;;;;;;5020739;28;20304;-63
2023/11/26 12:30:21;;;;;;;3.40;3.00;;;4.60;67.20;;;;;;5032605;28;20210;-66
2023/11/26 12:32:47;;;;;;;3.43;2.97;;;5.10;54.80;;;;;;5028417;28;20662;-69
2023/11/26 12:35:15;;;;;;;3.77;2.83;;;4.40;56.80;;;;;;5011438;28;20229;-68
2023/11/26 12:37:43;;;;;;;2.90;2.70;;;4.50;56.80;;;;;;5029816;28;20290;-68
2023/11/26 12:40:09;;;;;;;3.37;2.90;;;4.40;56.90;;;;;;5029837;28;20295;-68
2023/11/26 12:42:36;;;;;;;2.90;2.70;;;4.30;58.00;;;;;;5022076;28;20235;-66
2023/11/26 12:45:02;;;;;;;3.10;2.90;;;4.10;57.40;;;;;;5029423;28;20228;-68
2023/11/26 12:47:32;;;;;;;2.93;2.73;;;3.90;57.40;;;;;;5024971;28;20268;-67
2023/11/26 12:49:59;;;;;;;3.30;3.10;;;3.90;57.70;;;;;;5018667;28;20209;-66
2023/11/26 12:52:25;;;;;;;2.90;2.70;;;4.10;57.40;;;;;;5029535;28;20390;-68
2023/11/26 12:54:53;;;;;;;3.20;3.00;;;3.80;57.60;;;;;;5018969;28;20226;-67
2023/11/26 12:57:20;;;;;;;3.43;3.23;;;3.90;57.70;;;;;;5027121;28;20207;-67
2023/11/26 12:59:47;;;;;;;3.50;3.30;;;4.20;57.30;;;;;;5019493;28;20758;-66